Time;durP1;ratioP1;P1;durP2;ratioP2;P2;SDS_P1;SDS_P2;PMS_P1;PMS_P2;Temp;Humidity;BMP_temperature;BMP_pressure;BME280_temperature;BME280_humidity;BME280_pressure;Samples;Min_cycle;Max_cycle;Signal;HPM_P1;HPM_P2
2022/05/08 00:01:17;;;;;;;14.10;8.63;;;;;;;;;;6248527;22;20143;-51
2022/05/08 00:03:49;;;;;;;10.07;9.07;;;;;;;;;;6242472;22;20397;-52
2022/05/08 00:06:16;;;;;;;12.57;9.97;;;;;;;;;;6244613;23;20464;-52
2022/05/08 00:08:43;;;;;;;11.97;10.10;;;;;;;;;;6232121;23;20409;-52
2022/05/08 00:11:09;;;;;;;11.00;9.90;;;;;;;;;;6245221;22;20393;-53
2022/05/08 00:13:35;;;;;;;11.43;9.07;;;;;;;;;;6245259;22;20374;-52
2022/05/08 00:16:01;;;;;;;12.50;8.57;;;;;;;;;;6244563;22;20377;-52
2022/05/08 00:18:27;;;;;;;10.70;9.50;;;;;;;;;;6238863;22;20371;-53
2022/05/08 00:20:55;;;;;;;10.73;9.60;;;;;;;;;;6244516;22;20373;-52
2022/05/08 00:23:26;;;;;;;10.40;9.17;;;;;;;;;;6238608;22;20715;-53
2022/05/08 00:25:52;;;;;;;10.20;9.20;;;;;;;;;;6248413;22;20437;-49
2022/05/08 00:28:19;;;;;;;10.97;9.50;;;;;;;;;;6233897;22;20845;-52
2022/05/08 00:30:45;;;;;;;12.17;11.03;;;;;;;;;;6242312;22;20379;-49
2022/05/08 00:33:11;;;;;;;10.73;9.53;;;;;;;;;;6244062;22;20367;-52
2022/05/08 00:35:37;;;;;;;10.73;9.73;;;;;;;;;;6242993;22;20385;-53
2022/05/08 00:38:03;;;;;;;9.37;8.33;;;;;;;;;;6244003;22;20430;-52
2022/05/08 00:40:35;;;;;;;10.97;9.87;;;;;;;;;;6241600;22;20370;-52
2022/05/08 00:43:19;;;;;;;10.70;9.70;;;;;;;;;;6248324;22;20389;-52
2022/05/08 00:45:45;;;;;;;9.77;8.77;;;;;;;;;;6242356;22;20615;-52
2022/05/08 00:48:43;;;;;;;10.67;9.40;;;;;;;;;;6244158;22;20841;-52
2022/05/08 00:51:17;;;;;;;10.07;8.67;;;;;;;;;;6249139;22;20823;-52
2022/05/08 00:54:08;;;;;;;12.90;9.30;;;;;;;;;;6242336;22;20373;-53
2022/05/08 00:56:33;;;;;;;12.10;9.03;;;;;;;;;;6246860;22;20543;-51
2022/05/08 00:59:23;;;;;;;14.97;10.40;;;;;;;;;;6244703;23;20705;-51
2022/05/08 01:01:50;;;;;;;10.33;9.23;;;;;;;;;;6245373;22;20370;-52
2022/05/08 01:04:22;;;;;;;12.13;10.77;;;;;;;;;;6241951;22;20417;-54
2022/05/08 01:06:48;;;;;;;11.60;9.90;;;;;;;;;;6243901;22;20927;-51
2022/05/08 01:09:14;;;;;;;11.87;10.60;;;;;;;;;;6237002;22;20393;-54
2022/05/08 01:11:42;;;;;;;10.53;9.43;;;;;;;;;;6246124;22;20138;-53
2022/05/08 01:14:13;;;;;;;12.00;10.90;;;;;;;;;;6235853;22;20389;-53
2022/05/08 01:16:41;;;;;;;9.57;8.67;;;;;;;;;;6245713;22;20366;-52
2022/05/08 01:19:08;;;;;;;11.30;10.03;;;;;;;;;;6236563;22;20373;-52
2022/05/08 01:21:37;;;;;;;11.10;9.57;;;;;;;;;;6236630;22;20139;-52
2022/05/08 01:24:04;;;;;;;11.63;10.43;;;;;;;;;;6245512;22;20425;-53
2022/05/08 01:26:30;;;;;;;12.67;10.57;;;;;;;;;;6239441;22;20389;-53
2022/05/08 01:28:57;;;;;;;12.53;10.73;;;;;;;;;;6243291;22;20386;-52
2022/05/08 01:31:24;;;;;;;12.23;10.93;;;;;;;;;;6232672;22;20438;-53
2022/05/08 01:33:50;;;;;;;12.13;10.27;;;;;;;;;;6243757;22;20430;-53
2022/05/08 01:36:17;;;;;;;11.80;10.60;;;;;;;;;;6230021;23;20386;-53
2022/05/08 01:38:43;;;;;;;11.30;10.23;;;;;;;;;;6244025;22;20378;-54
2022/05/08 01:41:10;;;;;;;12.63;11.37;;;;;;;;;;6236334;22;20370;-53
2022/05/08 01:43:36;;;;;;;12.20;10.70;;;;;;;;;;6238814;22;20520;-51
2022/05/08 01:46:03;;;;;;;12.00;10.53;;;;;;;;;;6243820;22;20426;-53
2022/05/08 01:48:30;;;;;;;11.70;10.60;;;;;;;;;;6243251;22;20417;-52
2022/05/08 01:50:58;;;;;;;11.73;10.30;;;;;;;;;;6245864;22;20865;-51
2022/05/08 01:53:25;;;;;;;10.67;9.40;;;;;;;;;;6228875;22;20390;-53
2022/05/08 01:55:54;;;;;;;12.83;11.33;;;;;;;;;;6241974;22;20378;-50
2022/05/08 01:58:31;;;;;;;12.10;10.90;;;;;;;;;;6235159;22;20378;-53
2022/05/08 02:01:04;;;;;;;12.10;10.90;;;;;;;;;;6244353;22;20378;-53
2022/05/08 02:03:32;;;;;;;13.57;11.37;;;;;;;;;;6228976;22;20428;-52
2022/05/08 02:05:58;;;;;;;12.37;11.07;;;;;;;;;;6240820;22;20443;-51
2022/05/08 02:08:25;;;;;;;11.03;9.90;;;;;;;;;;6230645;22;20398;-54
2022/05/08 02:10:53;;;;;;;13.10;10.87;;;;;;;;;;6245075;22;20468;-56
2022/05/08 02:13:19;;;;;;;14.43;11.47;;;;;;;;;;6222538;22;20390;-53
2022/05/08 02:15:45;;;;;;;12.13;11.03;;;;;;;;;;6242330;22;20374;-53
2022/05/08 02:18:13;;;;;;;11.33;10.13;;;;;;;;;;6238405;22;20389;-52
2022/05/08 02:23:22;;;;;;;13.43;12.00;;;;;;;;;;6233869;22;20428;-52
2022/05/08 02:25:48;;;;;;;11.77;10.37;;;;;;;;;;6238726;22;20454;-53
2022/05/08 02:28:14;;;;;;;13.23;11.27;;;;;;;;;;6224146;22;20401;-49
2022/05/08 02:30:40;;;;;;;13.53;11.13;;;;;;;;;;6236710;22;20881;-51
2022/05/08 02:33:06;;;;;;;14.03;10.90;;;;;;;;;;6234939;22;20373;-49
2022/05/08 02:35:33;;;;;;;15.70;12.10;;;;;;;;;;6237447;22;20388;-50
2022/05/08 02:37:59;;;;;;;11.60;10.40;;;;;;;;;;6233972;22;20378;-52
2022/05/08 02:40:26;;;;;;;15.30;13.70;;;;;;;;;;6241454;22;20791;-52
2022/05/08 02:42:52;;;;;;;12.53;11.23;;;;;;;;;;6235493;22;20151;-52
2022/05/08 02:45:18;;;;;;;15.23;11.47;;;;;;;;;;6240713;22;20494;-52
2022/05/08 02:47:54;;;;;;;17.73;11.67;;;;;;;;;;6232119;22;20370;-51
2022/05/08 02:50:37;;;;;;;12.93;10.17;;;;;;;;;;6238118;22;20386;-51
2022/05/08 02:53:11;;;;;;;17.20;12.60;;;;;;;;;;6259781;22;20382;-52
2022/05/08 02:58:33;;;;;;;15.50;12.83;;;;;;;;;;6231402;23;20452;-52
2022/05/08 03:01:01;;;;;;;15.17;11.83;;;;;;;;;;6239153;22;20505;-53
2022/05/08 03:03:32;;;;;;;15.57;11.73;;;;;;;;;;6225773;22;20458;-51
2022/05/08 03:05:58;;;;;;;14.93;12.00;;;;;;;;;;6238187;22;20456;-52
2022/05/08 03:08:27;;;;;;;15.20;12.63;;;;;;;;;;6224478;22;20410;-51
2022/05/08 03:13:40;;;;;;;11.20;10.10;;;;;;;;;;6226548;23;20420;-52
2022/05/08 03:16:06;;;;;;;14.57;11.47;;;;;;;;;;6236436;23;20396;-52
2022/05/08 03:18:39;;;;;;;16.10;11.20;;;;;;;;;;6227484;22;20873;-53
2022/05/08 03:21:27;;;;;;;15.97;12.10;;;;;;;;;;6234566;22;20908;-52
2022/05/08 03:23:58;;;;;;;12.47;11.27;;;;;;;;;;6237322;23;20378;-51
2022/05/08 03:26:31;;;;;;;11.10;10.00;;;;;;;;;;6239514;23;20391;-52
2022/05/08 03:28:58;;;;;;;13.17;11.13;;;;;;;;;;6237153;22;20371;-52
2022/05/08 03:31:31;;;;;;;13.80;12.37;;;;;;;;;;6232332;22;20461;-50
2022/05/08 03:33:59;;;;;;;14.87;11.30;;;;;;;;;;6240160;23;20386;-53
2022/05/08 03:36:34;;;;;;;12.40;11.13;;;;;;;;;;6231673;22;20603;-54
2022/05/08 03:39:00;;;;;;;13.77;11.43;;;;;;;;;;6243232;22;20869;-50
2022/05/08 03:41:43;;;;;;;13.90;11.97;;;;;;;;;;6233255;22;20503;-51
2022/05/08 03:44:09;;;;;;;17.50;12.43;;;;;;;;;;6242170;22;20417;-53
2022/05/08 03:46:44;;;;;;;17.20;12.30;;;;;;;;;;6245581;22;20374;-52
2022/05/08 03:49:10;;;;;;;13.70;12.30;;;;;;;;;;6240904;22;20481;-51
2022/05/08 03:51:36;;;;;;;14.40;12.07;;;;;;;;;;6233245;22;20378;-53
2022/05/08 03:54:02;;;;;;;15.73;11.77;;;;;;;;;;6243875;22;20374;-51
2022/05/08 03:56:33;;;;;;;12.80;11.53;;;;;;;;;;6236677;22;21287;-51
2022/05/08 03:59:00;;;;;;;16.63;12.33;;;;;;;;;;6239059;22;20398;-51
2022/05/08 04:01:41;;;;;;;13.50;12.10;;;;;;;;;;6238856;22;20393;-51
2022/05/08 04:04:14;;;;;;;14.13;12.20;;;;;;;;;;6241414;23;20202;-53
2022/05/08 04:06:56;;;;;;;14.30;12.17;;;;;;;;;;6236331;22;20397;-51
2022/05/08 04:09:24;;;;;;;16.57;13.10;;;;;;;;;;6237232;22;20693;-50
2022/05/08 04:12:24;;;;;;;16.23;12.53;;;;;;;;;;6243005;22;20374;-51
2022/05/08 04:14:54;;;;;;;15.57;12.57;;;;;;;;;;6246006;22;20412;-52
2022/05/08 04:17:20;;;;;;;17.20;13.40;;;;;;;;;;6240959;22;20464;-50
2022/05/08 04:19:49;;;;;;;19.20;13.60;;;;;;;;;;6228355;22;20393;-51
2022/05/08 04:25:10;;;;;;;14.20;12.60;;;;;;;;;;6226925;23;20445;-51
2022/05/08 04:27:43;;;;;;;14.53;12.97;;;;;;;;;;6240116;22;20382;-51
2022/05/08 04:30:09;;;;;;;15.37;12.33;;;;;;;;;;6238348;22;20386;-50
2022/05/08 04:32:41;;;;;;;14.73;13.07;;;;;;;;;;6240904;22;20373;-51
2022/05/08 04:35:09;;;;;;;15.67;12.50;;;;;;;;;;6212015;23;20444;-52
2022/05/08 04:38:03;;;;;;;14.40;12.53;;;;;;;;;;6239380;22;20398;-53
2022/05/08 04:40:31;;;;;;;14.93;13.33;;;;;;;;;;6231840;22;20891;-51
2022/05/08 04:43:00;;;;;;;18.73;13.20;;;;;;;;;;6229721;22;20382;-51
2022/05/08 04:45:26;;;;;;;13.90;11.90;;;;;;;;;;6239360;22;20509;-51
2022/05/08 04:48:02;;;;;;;14.70;12.47;;;;;;;;;;6240223;22;20397;-52
2022/05/08 04:50:31;;;;;;;17.63;13.30;;;;;;;;;;6243193;22;20404;-51
2022/05/08 04:53:06;;;;;;;18.23;13.40;;;;;;;;;;6238936;22;20433;-50
2022/05/08 04:55:41;;;;;;;15.43;13.10;;;;;;;;;;6240185;22;20381;-52
2022/05/08 04:58:13;;;;;;;15.33;12.30;;;;;;;;;;6244819;22;20385;-53
2022/05/08 05:00:39;;;;;;;15.00;13.50;;;;;;;;;;6240621;23;20363;-50
2022/05/08 05:03:06;;;;;;;14.67;13.17;;;;;;;;;;6237525;22;20374;-52
2022/05/08 05:05:32;;;;;;;16.43;12.93;;;;;;;;;;6245830;22;20782;-51
2022/05/08 05:08:09;;;;;;;16.00;12.90;;;;;;;;;;6244784;22;20365;-51
2022/05/08 05:10:36;;;;;;;18.10;13.70;;;;;;;;;;6238632;22;20385;-51
2022/05/08 05:13:02;;;;;;;15.07;12.80;;;;;;;;;;6229490;22;20390;-51
2022/05/08 05:15:34;;;;;;;17.67;12.97;;;;;;;;;;6238506;22;20386;-52
2022/05/08 05:18:02;;;;;;;17.10;13.80;;;;;;;;;;6238276;22;20367;-52
2022/05/08 05:20:29;;;;;;;16.97;13.37;;;;;;;;;;6238381;22;20481;-53
2022/05/08 05:22:57;;;;;;;15.40;13.60;;;;;;;;;;6223956;22;20867;-51
2022/05/08 05:25:28;;;;;;;17.80;14.67;;;;;;;;;;6241753;22;20496;-52
2022/05/08 05:27:55;;;;;;;13.10;11.70;;;;;;;;;;6225928;22;20742;-52
2022/05/08 05:30:21;;;;;;;16.50;14.73;;;;;;;;;;6238272;22;21128;-52
2022/05/08 05:32:46;;;;;;;14.30;12.80;;;;;;;;;;6224077;22;20378;-54
2022/05/08 05:35:13;;;;;;;14.93;13.13;;;;;;;;;;6241834;22;20351;-52
2022/05/08 05:37:48;;;;;;;19.10;14.40;;;;;;;;;;6232303;22;20171;-52
2022/05/08 05:40:17;;;;;;;16.20;13.77;;;;;;;;;;6239926;23;20382;-52
2022/05/08 05:42:52;;;;;;;17.20;14.70;;;;;;;;;;6229435;22;20742;-50
2022/05/08 05:45:18;;;;;;;18.63;14.33;;;;;;;;;;6239421;22;20442;-50
2022/05/08 05:47:50;;;;;;;15.30;12.73;;;;;;;;;;6225112;22;20374;-49
2022/05/08 05:50:16;;;;;;;14.33;12.80;;;;;;;;;;6242551;22;20454;-51
2022/05/08 05:52:42;;;;;;;18.07;12.73;;;;;;;;;;6235772;22;20552;-51
2022/05/08 05:55:11;;;;;;;18.17;14.43;;;;;;;;;;6238890;22;20398;-52
2022/05/08 05:57:51;;;;;;;16.37;14.27;;;;;;;;;;6233140;22;20143;-52
2022/05/08 06:00:20;;;;;;;16.10;14.07;;;;;;;;;;6241463;22;20383;-52
2022/05/08 06:02:55;;;;;;;15.13;12.00;;;;;;;;;;6232230;22;20493;-51
2022/05/08 06:05:22;;;;;;;16.77;13.10;;;;;;;;;;6243945;22;20437;-51
2022/05/08 06:07:48;;;;;;;17.40;13.73;;;;;;;;;;6236890;22;20932;-52
2022/05/08 06:10:20;;;;;;;15.47;13.33;;;;;;;;;;6241641;22;20935;-52
2022/05/08 06:12:49;;;;;;;16.43;14.73;;;;;;;;;;6218895;22;20665;-51
2022/05/08 06:15:15;;;;;;;16.30;13.80;;;;;;;;;;6239846;22;20713;-52
2022/05/08 06:17:41;;;;;;;16.10;14.50;;;;;;;;;;6234127;22;20483;-51
2022/05/08 06:20:08;;;;;;;15.63;13.93;;;;;;;;;;6240652;22;20370;-52
2022/05/08 06:22:46;;;;;;;15.97;14.10;;;;;;;;;;6235871;22;20727;-52
2022/05/08 06:25:12;;;;;;;19.63;16.20;;;;;;;;;;6236827;22;20468;-53
2022/05/08 06:27:44;;;;;;;19.13;15.50;;;;;;;;;;6231638;22;20366;-52
2022/05/08 06:30:13;;;;;;;17.47;14.00;;;;;;;;;;6238185;22;20451;-52
2022/05/08 06:32:51;;;;;;;15.73;14.13;;;;;;;;;;6231944;22;20865;-53
2022/05/08 06:35:19;;;;;;;16.43;14.50;;;;;;;;;;6225320;22;20488;-51
2022/05/08 06:37:45;;;;;;;23.30;14.40;;;;;;;;;;6239565;22;20421;-53
2022/05/08 06:40:11;;;;;;;18.50;13.77;;;;;;;;;;6238354;22;20382;-50
2022/05/08 06:42:38;;;;;;;20.00;15.50;;;;;;;;;;6237674;22;20278;-52
2022/05/08 06:45:04;;;;;;;17.47;14.33;;;;;;;;;;6216111;22;20437;-52
2022/05/08 06:47:30;;;;;;;22.03;14.57;;;;;;;;;;6241211;22;20448;-52
2022/05/08 06:49:56;;;;;;;20.20;15.97;;;;;;;;;;6232214;22;20405;-51
2022/05/08 06:52:26;;;;;;;19.53;17.53;;;;;;;;;;6241316;22;20379;-52
2022/05/08 06:54:52;;;;;;;21.03;17.50;;;;;;;;;;6218972;22;20383;-52
2022/05/08 06:57:18;;;;;;;17.23;15.47;;;;;;;;;;6239377;22;20428;-52
2022/05/08 07:02:29;;;;;;;18.10;16.20;;;;;;;;;;6240337;23;20400;-51
2022/05/08 07:04:54;;;;;;;19.13;16.47;;;;;;;;;;6224124;22;20421;-51
2022/05/08 07:07:20;;;;;;;18.73;16.80;;;;;;;;;;6240876;22;20465;-50
2022/05/08 07:09:47;;;;;;;20.77;16.80;;;;;;;;;;6234116;22;20147;-51
2022/05/08 07:12:13;;;;;;;19.47;17.43;;;;;;;;;;6240549;22;20449;-52
2022/05/08 07:14:42;;;;;;;18.00;15.50;;;;;;;;;;6217080;22;20926;-51
2022/05/08 07:17:10;;;;;;;18.53;16.53;;;;;;;;;;6239552;22;20154;-52
2022/05/08 07:19:36;;;;;;;17.50;15.63;;;;;;;;;;6232650;22;20432;-52
2022/05/08 07:22:02;;;;;;;17.80;15.33;;;;;;;;;;6236249;22;20362;-48
2022/05/08 07:24:28;;;;;;;19.10;16.00;;;;;;;;;;6238400;22;20428;-51
2022/05/08 07:26:54;;;;;;;18.47;15.67;;;;;;;;;;6222119;22;20374;-51
2022/05/08 07:29:21;;;;;;;20.00;16.30;;;;;;;;;;6235215;22;20448;-51
2022/05/08 07:31:47;;;;;;;16.80;13.13;;;;;;;;;;6235004;22;20385;-51
2022/05/08 07:37:00;;;;;;;18.83;15.07;;;;;;;;;;6237722;23;20535;-51
2022/05/08 07:39:28;;;;;;;18.13;16.27;;;;;;;;;;6215427;22;20771;-52
2022/05/08 07:41:55;;;;;;;17.13;14.73;;;;;;;;;;6232877;22;20744;-51
2022/05/08 07:44:47;;;;;;;21.87;16.67;;;;;;;;;;6232808;22;20232;-56
2022/05/08 07:47:15;;;;;;;17.10;15.37;;;;;;;;;;6222189;23;20386;-52
2022/05/08 07:49:47;;;;;;;17.87;15.50;;;;;;;;;;6238604;22;20465;-51
2022/05/08 07:52:14;;;;;;;17.67;15.77;;;;;;;;;;6231441;22;20492;-50
2022/05/08 07:54:55;;;;;;;16.63;15.00;;;;;;;;;;6234404;22;20370;-51
2022/05/08 07:57:25;;;;;;;17.07;15.30;;;;;;;;;;6230979;22;20615;-51
2022/05/08 08:00:00;;;;;;;17.00;15.20;;;;;;;;;;6232895;22;20413;-52
2022/05/08 08:02:30;;;;;;;16.53;14.93;;;;;;;;;;6235719;22;20147;-51
2022/05/08 08:05:20;;;;;;;15.10;13.60;;;;;;;;;;6221217;22;20488;-51
2022/05/08 08:07:52;;;;;;;13.40;12.00;;;;;;;;;;6230666;22;20893;-50
2022/05/08 08:10:18;;;;;;;14.37;12.83;;;;;;;;;;6214994;22;20381;-50
2022/05/08 08:12:44;;;;;;;15.10;13.53;;;;;;;;;;6241767;22;20733;-52
2022/05/08 08:15:10;;;;;;;14.90;13.23;;;;;;;;;;6236652;22;20545;-53
2022/05/08 08:17:37;;;;;;;14.60;13.17;;;;;;;;;;6239948;23;20774;-52
2022/05/08 08:20:08;;;;;;;13.90;12.47;;;;;;;;;;6224168;22;20909;-52
2022/05/08 08:22:36;;;;;;;14.50;13.00;;;;;;;;;;6241492;22;20370;-52
2022/05/08 08:25:02;;;;;;;14.63;12.03;;;;;;;;;;6229207;22;20433;-51
2022/05/08 08:27:28;;;;;;;15.10;13.17;;;;;;;;;;6242407;22;20378;-52
2022/05/08 08:30:01;;;;;;;13.57;10.47;;;;;;;;;;6239150;22;20350;-53
2022/05/08 08:32:27;;;;;;;17.03;11.73;;;;;;;;;;6237672;22;20402;-51
2022/05/08 08:35:00;;;;;;;12.47;11.20;;;;;;;;;;6245022;22;20374;-53
2022/05/08 08:37:28;;;;;;;11.33;10.13;;;;;;;;;;6221831;23;20577;-51
2022/05/08 08:39:57;;;;;;;10.83;9.73;;;;;;;;;;6233428;23;20404;-51
2022/05/08 08:42:28;;;;;;;12.20;10.80;;;;;;;;;;6216829;22;20843;-52
2022/05/08 08:47:55;;;;;;;11.67;10.53;;;;;;;;;;6224245;23;20681;-53
2022/05/08 08:50:24;;;;;;;11.87;10.33;;;;;;;;;;6235459;22;20376;-50
2022/05/08 08:52:51;;;;;;;15.97;10.97;;;;;;;;;;6230882;22;20373;-52
2022/05/08 08:55:19;;;;;;;13.03;11.70;;;;;;;;;;6240735;22;20501;-52
2022/05/08 08:58:04;;;;;;;12.63;10.27;;;;;;;;;;6238551;22;20397;-52
2022/05/08 09:00:30;;;;;;;10.93;9.47;;;;;;;;;;6239434;22;20428;-52
2022/05/08 09:02:56;;;;;;;11.23;10.20;;;;;;;;;;6240133;22;20382;-52
2022/05/08 09:05:25;;;;;;;13.50;11.53;;;;;;;;;;6237755;22;20430;-52
2022/05/08 09:07:56;;;;;;;10.97;9.87;;;;;;;;;;6223055;23;20374;-53
2022/05/08 09:10:22;;;;;;;11.10;10.00;;;;;;;;;;6241818;22;20393;-51
2022/05/08 09:12:56;;;;;;;11.37;10.20;;;;;;;;;;6230116;22;20374;-53
2022/05/08 09:15:23;;;;;;;11.70;10.53;;;;;;;;;;6238852;22;20367;-51
2022/05/08 09:17:50;;;;;;;10.40;9.40;;;;;;;;;;6224356;22;20805;-52
2022/05/08 09:20:26;;;;;;;11.60;10.27;;;;;;;;;;6243819;22;20386;-52
2022/05/08 09:22:59;;;;;;;11.67;9.40;;;;;;;;;;6216781;22;20418;-53
2022/05/08 09:25:25;;;;;;;11.60;9.27;;;;;;;;;;6240774;22;20429;-52
2022/05/08 09:28:00;;;;;;;11.60;9.70;;;;;;;;;;6222993;22;20691;-52
2022/05/08 09:30:27;;;;;;;11.27;9.50;;;;;;;;;;6243783;22;20370;-53
2022/05/08 09:33:00;;;;;;;11.10;9.50;;;;;;;;;;6241207;22;20401;-51
2022/05/08 09:35:26;;;;;;;15.60;9.10;;;;;;;;;;6242739;22;20751;-53
2022/05/08 09:37:53;;;;;;;12.70;8.87;;;;;;;;;;6226641;22;20830;-54
2022/05/08 09:40:19;;;;;;;12.20;9.83;;;;;;;;;;6241825;22;20433;-52
2022/05/08 09:43:16;;;;;;;12.43;11.23;;;;;;;;;;6242343;22;20649;-52
2022/05/08 09:45:56;;;;;;;10.77;9.70;;;;;;;;;;6233631;22;20429;-52
2022/05/08 09:48:25;;;;;;;10.63;8.80;;;;;;;;;;6237776;22;20385;-52
2022/05/08 09:50:51;;;;;;;10.30;9.03;;;;;;;;;;6220026;23;20766;-51
2022/05/08 09:53:20;;;;;;;13.20;9.23;;;;;;;;;;6235710;22;20377;-51
2022/05/08 09:56:28;;;;;;;10.10;8.93;;;;;;;;;;6236460;22;21767;-52
2022/05/08 09:59:21;;;;;;;9.83;8.83;;;;;;;;;;6218071;22;20690;-52
2022/05/08 10:01:48;;;;;;;12.47;10.00;;;;;;;;;;6241339;22;20363;-51
2022/05/08 10:04:23;;;;;;;11.93;10.20;;;;;;;;;;6231425;22;20366;-51
2022/05/08 10:06:52;;;;;;;10.90;9.50;;;;;;;;;;6237754;22;20560;-52
2022/05/08 10:15:22;;;;;;;14.20;8.70;;;;;;;;;;6214362;23;20393;-52
2022/05/08 10:17:48;;;;;;;9.57;8.67;;;;;;;;;;6238179;22;20493;-52
2022/05/08 10:20:14;;;;;;;9.93;8.70;;;;;;;;;;6231050;23;20405;-52
2022/05/08 10:22:48;;;;;;;10.20;9.30;;;;;;;;;;6238606;22;20143;-52
2022/05/08 10:25:17;;;;;;;9.63;8.83;;;;;;;;;;6215545;22;20282;-52
2022/05/08 10:28:03;;;;;;;9.47;8.40;;;;;;;;;;6235831;22;20390;-52
2022/05/08 10:30:30;;;;;;;9.60;8.63;;;;;;;;;;6206373;23;20406;-51
2022/05/08 10:32:56;;;;;;;8.83;8.00;;;;;;;;;;6239929;22;20488;-52
2022/05/08 10:35:25;;;;;;;9.83;8.93;;;;;;;;;;6216167;22;20441;-58
2022/05/08 10:38:04;;;;;;;10.17;9.07;;;;;;;;;;6241009;22;20398;-51
2022/05/08 10:40:33;;;;;;;10.57;9.47;;;;;;;;;;6216056;22;20688;-52
2022/05/08 10:43:11;;;;;;;12.50;9.73;;;;;;;;;;6240003;22;20428;-53
2022/05/08 10:45:40;;;;;;;10.10;9.10;;;;;;;;;;6234050;22;20434;-52
2022/05/08 10:48:12;;;;;;;9.40;8.60;;;;;;;;;;6239938;22;20371;-53
2022/05/08 10:50:39;;;;;;;10.43;9.30;;;;;;;;;;6215750;22;20390;-53
2022/05/08 10:53:14;;;;;;;10.20;9.20;;;;;;;;;;6239141;22;20488;-50
2022/05/08 10:55:41;;;;;;;10.30;9.40;;;;;;;;;;6222763;22;20826;-52
2022/05/08 10:58:07;;;;;;;9.47;8.57;;;;;;;;;;6239543;22;20374;-52
2022/05/08 11:00:33;;;;;;;10.80;9.40;;;;;;;;;;6204996;23;20880;-52
2022/05/08 11:03:00;;;;;;;8.93;8.03;;;;;;;;;;6239970;22;20371;-53
2022/05/08 11:05:29;;;;;;;9.20;8.30;;;;;;;;;;6215732;23;20201;-52
2022/05/08 11:07:56;;;;;;;10.50;8.77;;;;;;;;;;6239591;22;20953;-52
2022/05/08 11:10:22;;;;;;;8.47;7.67;;;;;;;;;;6220736;22;20374;-52
2022/05/08 11:13:04;;;;;;;8.77;7.93;;;;;;;;;;6240397;22;20367;-52
2022/05/08 11:15:31;;;;;;;7.40;6.70;;;;;;;;;;6220475;22;20582;-52
2022/05/08 11:18:16;;;;;;;7.50;6.10;;;;;;;;;;6238191;22;20362;-52
2022/05/08 11:20:47;;;;;;;7.63;6.03;;;;;;;;;;6220876;22;20405;-53
2022/05/08 11:23:14;;;;;;;7.10;6.40;;;;;;;;;;6236954;22;20378;-53
2022/05/08 11:25:44;;;;;;;7.63;5.93;;;;;;;;;;6225164;22;20465;-53
2022/05/08 11:28:14;;;;;;;6.23;5.63;;;;;;;;;;6239598;23;20405;-54
2022/05/08 11:30:57;;;;;;;6.97;6.33;;;;;;;;;;6206624;22;20441;-53
2022/05/08 11:36:27;;;;;;;8.37;7.67;;;;;;;;;;6237891;23;20558;-52
2022/05/08 11:39:00;;;;;;;8.63;6.40;;;;;;;;;;6227291;22;20374;-52
2022/05/08 11:41:38;;;;;;;8.27;7.57;;;;;;;;;;6240264;22;20944;-52
2022/05/08 11:44:14;;;;;;;5.87;5.30;;;;;;;;;;6221918;22;20485;-52
2022/05/08 11:46:49;;;;;;;7.23;6.53;;;;;;;;;;6239780;22;20473;-52
2022/05/08 11:49:16;;;;;;;6.97;6.33;;;;;;;;;;6221926;23;20821;-52
2022/05/08 11:51:50;;;;;;;7.20;5.60;;;;;;;;;;6241208;23;20465;-52
2022/05/08 11:54:20;;;;;;;7.20;6.50;;;;;;;;;;6220134;22;20473;-53
2022/05/08 11:56:47;;;;;;;7.80;7.00;;;;;;;;;;6234275;22;20381;-51
2022/05/08 11:59:16;;;;;;;6.47;5.63;;;;;;;;;;6218710;22;20463;-53
2022/05/08 12:01:47;;;;;;;5.77;5.17;;;;;;;;;;6238372;22;20385;-53
2022/05/08 12:04:33;;;;;;;8.60;5.57;;;;;;;;;;6207359;22;20378;-53
2022/05/08 12:07:07;;;;;;;5.90;5.30;;;;;;;;;;6242485;22;20370;-52
2022/05/08 12:09:34;;;;;;;6.60;5.80;;;;;;;;;;6220019;22;20370;-53
2022/05/08 12:12:23;;;;;;;7.03;5.73;;;;;;;;;;6240908;23;20378;-53
2022/05/08 12:14:51;;;;;;;6.03;5.43;;;;;;;;;;6235377;22;20423;-53
2022/05/08 12:17:27;;;;;;;8.47;6.37;;;;;;;;;;6238291;22;20374;-52
2022/05/08 12:20:00;;;;;;;9.03;6.50;;;;;;;;;;6230808;22;20840;-52
2022/05/08 12:25:29;;;;;;;7.10;6.50;;;;;;;;;;6230299;23;20445;-53
2022/05/08 12:28:30;;;;;;;6.47;5.80;;;;;;;;;;6232927;22;20393;-54
2022/05/08 12:30:56;;;;;;;8.23;7.03;;;;;;;;;;6242597;22;20381;-53
2022/05/08 12:33:32;;;;;;;8.67;7.20;;;;;;;;;;6203837;23;20424;-52
2022/05/08 12:36:05;;;;;;;9.63;5.93;;;;;;;;;;6196753;22;20393;-53
2022/05/08 12:38:32;;;;;;;7.13;6.43;;;;;;;;;;6238452;22;20378;-53
2022/05/08 12:41:28;;;;;;;8.80;6.00;;;;;;;;;;6230792;22;20890;-54
2022/05/08 12:44:04;;;;;;;8.30;6.60;;;;;;;;;;6236749;23;20366;-52
2022/05/08 12:46:45;;;;;;;6.73;6.10;;;;;;;;;;6224266;22;20748;-54
2022/05/08 12:49:13;;;;;;;8.33;6.50;;;;;;;;;;6241520;22;20381;-52
2022/05/08 12:51:45;;;;;;;6.93;6.33;;;;;;;;;;6236593;22;20614;-54
2022/05/08 12:54:11;;;;;;;7.67;6.90;;;;;;;;;;6241307;22;20428;-53
2022/05/08 12:56:47;;;;;;;6.53;5.93;;;;;;;;;;6226263;22;20711;-53
2022/05/08 13:01:59;;;;;;;6.90;6.30;;;;;;;;;;6226653;23;20382;-57
2022/05/08 13:04:26;;;;;;;7.20;6.50;;;;;;;;;;6240976;22;20426;-51
2022/05/08 13:07:16;;;;;;;6.93;6.33;;;;;;;;;;6217413;22;20761;-52
2022/05/08 13:09:44;;;;;;;6.47;5.70;;;;;;;;;;6237012;23;20909;-52
2022/05/08 13:12:10;;;;;;;6.00;5.40;;;;;;;;;;6230128;22;20398;-50
2022/05/08 13:14:36;;;;;;;6.10;5.50;;;;;;;;;;6228178;22;20970;-51
2022/05/08 13:17:02;;;;;;;7.60;5.50;;;;;;;;;;6235959;22;20374;-49
2022/05/08 13:19:29;;;;;;;6.60;5.43;;;;;;;;;;6230646;22;20477;-51
2022/05/08 13:21:55;;;;;;;6.80;6.20;;;;;;;;;;6243397;22;20379;-52
2022/05/08 13:24:22;;;;;;;7.57;5.93;;;;;;;;;;6222247;22;20796;-53
2022/05/08 13:27:04;;;;;;;6.70;6.00;;;;;;;;;;6239749;22;20378;-54
2022/05/08 13:29:37;;;;;;;5.60;5.10;;;;;;;;;;6248879;22;20389;-53
2022/05/08 13:32:31;;;;;;;5.83;5.33;;;;;;;;;;6238198;22;20383;-53
2022/05/08 13:35:09;;;;;;;6.33;5.07;;;;;;;;;;6238914;22;20382;-53
2022/05/08 13:37:54;;;;;;;6.30;5.50;;;;;;;;;;6238421;22;20394;-53
2022/05/08 13:40:29;;;;;;;5.73;5.13;;;;;;;;;;6254631;22;20390;-52
2022/05/08 13:43:19;;;;;;;7.37;5.90;;;;;;;;;;6230090;22;20424;-53
2022/05/08 13:45:49;;;;;;;6.83;5.33;;;;;;;;;;6238126;22;20822;-54
2022/05/08 13:48:22;;;;;;;4.83;4.33;;;;;;;;;;6217171;22;20380;-53
2022/05/08 13:50:50;;;;;;;6.00;5.00;;;;;;;;;;6240495;22;20464;-53
2022/05/08 13:53:18;;;;;;;5.90;5.10;;;;;;;;;;6234870;23;20734;-53
2022/05/08 13:55:46;;;;;;;6.73;5.00;;;;;;;;;;6238803;22;20692;-52
2022/05/08 13:58:34;;;;;;;6.30;5.70;;;;;;;;;;6229970;23;20464;-53
2022/05/08 14:01:05;;;;;;;5.77;5.27;;;;;;;;;;6260035;22;20374;-53
2022/05/08 14:03:32;;;;;;;5.60;4.30;;;;;;;;;;6237026;22;20404;-53
2022/05/08 14:05:58;;;;;;;5.67;5.07;;;;;;;;;;6239831;22;20814;-55
2022/05/08 14:08:25;;;;;;;7.40;4.20;;;;;;;;;;6226265;22;20386;-53
2022/05/08 14:10:51;;;;;;;5.80;4.60;;;;;;;;;;6240903;22;20401;-53
2022/05/08 14:13:24;;;;;;;5.27;4.43;;;;;;;;;;6200105;22;21013;-53
2022/05/08 14:15:51;;;;;;;7.73;4.77;;;;;;;;;;6239722;22;20378;-54
2022/05/08 14:18:29;;;;;;;8.27;5.23;;;;;;;;;;6223647;23;20455;-54
2022/05/08 14:20:55;;;;;;;5.23;4.83;;;;;;;;;;6239058;22;20456;-54
2022/05/08 14:23:21;;;;;;;5.53;4.77;;;;;;;;;;6234448;23;20401;-53
2022/05/08 14:25:47;;;;;;;6.23;5.57;;;;;;;;;;6238646;23;20443;-54
2022/05/08 14:28:17;;;;;;;5.17;4.73;;;;;;;;;;6219650;23;20810;-53
2022/05/08 14:36:01;;;;;;;9.27;5.67;;;;;;;;;;6242485;22;20457;-53
2022/05/08 14:36:15;;;;;;;4.80;4.40;;;;;;;;;;6241345;23;20911;-53
2022/05/08 14:38:42;;;;;;;4.63;4.20;;;;;;;;;;6225913;23;20386;-54
2022/05/08 14:41:08;;;;;;;5.97;5.03;;;;;;;;;;6236805;23;20409;-53
2022/05/08 14:43:34;;;;;;;5.30;4.80;;;;;;;;;;6206137;22;20370;-53
2022/05/08 14:46:01;;;;;;;5.43;4.93;;;;;;;;;;6232917;22;20434;-53
2022/05/08 14:48:27;;;;;;;5.20;4.70;;;;;;;;;;6216616;22;20371;-53
2022/05/08 14:50:54;;;;;;;5.13;4.63;;;;;;;;;;6238676;23;20390;-54
2022/05/08 14:53:20;;;;;;;6.00;4.90;;;;;;;;;;6233842;22;20370;-53
2022/05/08 14:55:47;;;;;;;4.73;4.20;;;;;;;;;;6238729;22;20723;-53
2022/05/08 14:58:50;;;;;;;6.20;5.07;;;;;;;;;;6233455;23;20150;-54
2022/05/08 15:01:17;;;;;;;5.90;5.17;;;;;;;;;;6239745;22;20398;-54
2022/05/08 15:03:44;;;;;;;8.10;5.80;;;;;;;;;;6236673;23;20477;-54
2022/05/08 15:06:12;;;;;;;7.23;5.57;;;;;;;;;;6215510;22;21051;-52
2022/05/08 15:09:13;;;;;;;6.07;5.20;;;;;;;;;;6238451;22;20449;-55
2022/05/08 15:11:43;;;;;;;5.20;4.70;;;;;;;;;;6228070;23;20404;-54
2022/05/08 15:14:13;;;;;;;5.43;4.93;;;;;;;;;;6242947;22;20815;-52
2022/05/08 15:16:40;;;;;;;5.73;5.10;;;;;;;;;;6220256;22;20394;-53
2022/05/08 15:19:06;;;;;;;5.30;4.47;;;;;;;;;;6241422;22;20432;-52
2022/05/08 15:21:32;;;;;;;4.93;4.50;;;;;;;;;;6231497;22;20379;-54
2022/05/08 15:24:11;;;;;;;4.70;4.30;;;;;;;;;;6240323;23;20699;-53